Time;durP1;ratioP1;P1;durP2;ratioP2;P2;SDS_P1;SDS_P2;PMS_P1;PMS_P2;Temp;Humidity;BMP_temperature;BMP_pressure;BME280_temperature;BME280_humidity;BME280_pressure;Samples;Min_cycle;Max_cycle;Signal;HPM_P1;HPM_P2
2023/10/27 00:00:21;;;;;;;1.27;0.77;;;8.30;99.90;;;;;;2072929;28;20233;-84
2023/10/27 00:01:22;;;;;;;3.75;0.77;;;8.30;99.90;;;;;;2066601;28;20301;-84
2023/10/27 00:02:22;;;;;;;2.10;0.80;;;8.30;99.90;;;;;;2067874;28;20225;-84
2023/10/27 00:03:23;;;;;;;2.07;0.90;;;8.30;99.90;;;;;;2064210;28;20229;-84
2023/10/27 00:04:24;;;;;;;3.70;0.73;;;8.30;99.90;;;;;;2064281;28;20233;-84
2023/10/27 00:05:24;;;;;;;2.20;0.83;;;8.30;99.90;;;;;;2072269;28;20237;-84
2023/10/27 00:06:27;;;;;;;3.07;0.80;;;8.20;99.90;;;;;;2072402;28;20498;-84
2023/10/27 00:07:28;;;;;;;2.55;0.80;;;8.20;99.90;;;;;;2070197;28;20237;-82
2023/10/27 00:08:28;;;;;;;3.73;0.97;;;8.20;99.90;;;;;;2074508;28;20225;-84
2023/10/27 00:09:31;;;;;;;1.03;0.80;;;8.20;99.90;;;;;;2074753;28;20229;-84
2023/10/27 00:10:35;;;;;;;1.50;0.77;;;8.10;99.90;;;;;;2073793;28;20252;-84
2023/10/27 00:11:35;;;;;;;1.10;0.75;;;8.10;99.90;;;;;;2072995;28;20226;-84
2023/10/27 00:12:36;;;;;;;1.00;0.70;;;8.10;99.90;;;;;;2072937;28;20260;-84
2023/10/27 00:13:36;;;;;;;2.37;0.90;;;8.20;99.90;;;;;;2073404;28;20311;-84
2023/10/27 00:14:37;;;;;;;1.83;0.90;;;8.30;99.90;;;;;;2066580;28;20234;-84
2023/10/27 00:15:38;;;;;;;1.88;0.68;;;8.30;99.90;;;;;;2068305;28;20229;-84
2023/10/27 00:16:39;;;;;;;2.20;0.77;;;8.40;99.90;;;;;;2072779;28;20244;-84
2023/10/27 00:17:39;;;;;;;2.33;0.80;;;8.40;99.90;;;;;;2081045;28;20229;-84
2023/10/27 00:18:40;;;;;;;1.93;0.70;;;8.50;99.90;;;;;;2072977;28;20229;-84
2023/10/27 00:19:40;;;;;;;2.30;1.00;;;8.50;99.90;;;;;;2072049;28;20267;-85
2023/10/27 00:20:41;;;;;;;1.67;1.10;;;8.50;99.90;;;;;;2072647;28;20228;-84
2023/10/27 00:21:41;;;;;;;2.20;1.00;;;8.50;99.90;;;;;;2072385;28;20233;-85
2023/10/27 00:22:42;;;;;;;1.73;0.97;;;8.50;99.90;;;;;;2072232;28;20294;-84
2023/10/27 00:23:42;;;;;;;2.37;1.03;;;8.60;99.90;;;;;;2077133;28;20236;-84
2023/10/27 00:24:43;;;;;;;1.50;1.07;;;8.60;99.90;;;;;;2071853;28;20291;-84
2023/10/27 00:25:44;;;;;;;1.70;0.90;;;8.60;99.90;;;;;;2072480;28;20276;-85
2023/10/27 00:26:44;;;;;;;3.27;1.20;;;8.70;99.90;;;;;;2072217;28;20240;-84
2023/10/27 00:27:45;;;;;;;3.07;0.90;;;8.70;99.90;;;;;;2071855;28;20772;-84
2023/10/27 00:28:46;;;;;;;3.63;1.10;;;8.70;99.90;;;;;;2072718;28;20367;-84
2023/10/27 00:29:47;;;;;;;2.90;0.98;;;8.70;99.90;;;;;;2072292;28;20229;-84
2023/10/27 00:30:47;;;;;;;2.70;0.90;;;8.70;99.90;;;;;;2072456;28;20240;-84
2023/10/27 00:31:48;;;;;;;3.67;1.10;;;8.70;99.90;;;;;;2072042;28;20283;-84
2023/10/27 00:32:48;;;;;;;2.60;1.30;;;8.50;99.90;;;;;;2063783;28;20252;-84
2023/10/27 00:33:49;;;;;;;3.73;1.10;;;8.50;99.90;;;;;;2064755;28;20257;-84
2023/10/27 00:34:50;;;;;;;2.83;1.10;;;8.40;99.90;;;;;;2071380;28;20265;-84
2023/10/27 00:35:51;;;;;;;2.23;1.10;;;8.50;99.90;;;;;;2072887;28;20245;-84
2023/10/27 00:36:52;;;;;;;3.78;1.10;;;8.50;99.90;;;;;;2057338;28;20242;-84
2023/10/27 00:37:53;;;;;;;2.63;0.80;;;8.60;99.90;;;;;;2065849;28;20328;-84
2023/10/27 00:38:53;;;;;;;3.20;0.93;;;8.70;99.90;;;;;;2075501;28;20294;-84
2023/10/27 00:39:54;;;;;;;2.73;1.30;;;8.70;99.90;;;;;;2081395;28;20267;-84
2023/10/27 00:40:54;;;;;;;2.03;1.03;;;8.70;99.90;;;;;;2073243;28;20247;-84
2023/10/27 00:41:55;;;;;;;4.53;1.17;;;8.70;99.90;;;;;;2072064;28;20294;-84
2023/10/27 00:43:01;;;;;;;3.63;1.30;;;8.70;99.90;;;;;;2072014;28;20243;-84
2023/10/27 00:44:02;;;;;;;6.03;1.08;;;8.60;99.90;;;;;;2072847;28;20233;-83
2023/10/27 00:45:03;;;;;;;3.63;1.30;;;8.40;99.90;;;;;;2071513;28;20827;-84
2023/10/27 00:46:04;;;;;;;1.85;1.10;;;8.40;99.90;;;;;;2072398;28;20193;-84
2023/10/27 00:47:04;;;;;;;2.50;1.13;;;8.30;99.90;;;;;;2063989;28;20229;-84
2023/10/27 00:48:05;;;;;;;2.00;1.03;;;8.30;99.90;;;;;;2072313;28;20193;-84
2023/10/27 00:49:06;;;;;;;3.27;1.03;;;8.30;99.90;;;;;;2067942;28;20214;-84
2023/10/27 00:50:07;;;;;;;3.07;1.10;;;8.40;99.90;;;;;;2071494;28;20595;-84
2023/10/27 00:51:09;;;;;;;1.83;1.00;;;8.40;99.90;;;;;;2072460;28;20211;-84
2023/10/27 00:52:13;;;;;;;2.53;1.00;;;8.30;99.90;;;;;;2064814;28;20242;-84
2023/10/27 00:53:18;;;;;;;1.08;0.75;;;8.30;99.90;;;;;;2069115;28;20272;-84
2023/10/27 00:54:20;;;;;;;3.05;1.00;;;8.20;99.90;;;;;;2080514;28;20188;-85
2023/10/27 00:55:21;;;;;;;4.10;1.20;;;8.20;99.90;;;;;;2087410;28;20237;-84
2023/10/27 00:56:22;;;;;;;2.73;0.97;;;8.30;99.90;;;;;;2087407;28;20304;-84
2023/10/27 00:57:25;;;;;;;3.50;1.23;;;8.30;99.90;;;;;;2081317;28;20241;-84
2023/10/27 00:58:26;;;;;;;2.75;1.20;;;8.50;99.90;;;;;;2081211;28;20239;-83
2023/10/27 00:59:27;;;;;;;2.65;0.90;;;8.50;99.90;;;;;;2087647;28;20254;-84
2023/10/27 01:00:28;;;;;;;2.73;1.00;;;8.50;99.90;;;;;;2078690;28;20240;-85
2023/10/27 01:01:29;;;;;;;3.57;0.77;;;8.60;99.90;;;;;;2075531;28;20237;-84
2023/10/27 01:02:30;;;;;;;3.45;0.80;;;8.60;99.90;;;;;;2073383;28;20462;-86
2023/10/27 01:03:31;;;;;;;2.17;0.90;;;8.60;99.90;;;;;;2064763;28;20241;-85
2023/10/27 01:04:32;;;;;;;3.78;0.90;;;8.70;99.90;;;;;;2080009;28;20508;-84
2023/10/27 01:05:33;;;;;;;2.77;1.10;;;8.80;99.90;;;;;;2072951;28;20238;-84
2023/10/27 01:06:34;;;;;;;2.50;1.13;;;8.80;99.90;;;;;;2073369;28;20232;-84
2023/10/27 01:07:35;;;;;;;2.47;1.00;;;8.80;99.90;;;;;;2081622;28;20256;-84
2023/10/27 01:08:36;;;;;;;3.08;1.10;;;8.70;99.90;;;;;;2073024;28;20234;-84
2023/10/27 01:09:37;;;;;;;3.67;1.10;;;8.70;99.90;;;;;;2081705;28;20229;-84
2023/10/27 01:10:37;;;;;;;4.83;1.13;;;8.60;99.90;;;;;;2081811;28;20264;-85
2023/10/27 01:11:39;;;;;;;2.33;0.90;;;8.70;99.90;;;;;;2089279;28;20228;-84
2023/10/27 01:12:45;;;;;;;3.15;1.17;;;8.60;99.90;;;;;;2089579;28;20284;-84
2023/10/27 01:13:51;;;;;;;2.90;0.77;;;8.60;99.90;;;;;;2089285;28;20220;-84
2023/10/27 01:14:51;;;;;;;1.25;0.98;;;8.60;99.90;;;;;;2088656;28;20284;-84
2023/10/27 01:15:52;;;;;;;4.77;1.30;;;8.40;99.90;;;;;;2081088;28;20251;-83
2023/10/27 01:16:53;;;;;;;1.30;1.00;;;8.40;99.90;;;;;;2081804;28;20241;-83
2023/10/27 01:17:54;;;;;;;1.10;0.85;;;8.40;99.90;;;;;;2081360;28;20217;-83
2023/10/27 01:18:55;;;;;;;4.60;1.17;;;8.40;99.90;;;;;;2080263;28;20236;-84
2023/10/27 01:19:55;;;;;;;3.20;0.82;;;8.40;99.90;;;;;;2078992;28;20297;-84
2023/10/27 01:20:56;;;;;;;3.50;0.90;;;8.50;99.90;;;;;;2072118;28;20233;-84
2023/10/27 01:21:56;;;;;;;3.43;0.90;;;8.50;99.90;;;;;;2072357;28;20226;-84
2023/10/27 01:22:57;;;;;;;4.63;1.20;;;8.60;99.90;;;;;;2072134;28;20600;-84
2023/10/27 01:23:57;;;;;;;1.43;0.90;;;8.60;99.90;;;;;;2071125;28;20295;-84
2023/10/27 01:24:58;;;;;;;2.70;0.90;;;8.60;99.90;;;;;;2062978;28;20226;-83
2023/10/27 01:25:59;;;;;;;1.97;0.90;;;8.50;99.90;;;;;;2063320;28;20314;-84
2023/10/27 01:27:00;;;;;;;2.07;1.00;;;8.50;99.90;;;;;;2063364;28;20234;-83
2023/10/27 01:28:02;;;;;;;2.28;0.95;;;8.30;99.90;;;;;;2063372;28;20230;-84
2023/10/27 01:29:02;;;;;;;3.00;1.00;;;8.40;99.90;;;;;;2075908;28;20229;-85
2023/10/27 01:30:04;;;;;;;2.10;1.00;;;8.40;99.90;;;;;;2083634;28;20192;-83
2023/10/27 01:31:04;;;;;;;1.95;1.05;;;8.40;99.90;;;;;;2071471;28;20201;-84
2023/10/27 01:32:05;;;;;;;2.50;1.00;;;8.40;99.90;;;;;;2072706;28;20228;-84
2023/10/27 01:33:06;;;;;;;2.07;0.83;;;8.30;99.90;;;;;;2076438;28;20291;-84
2023/10/27 01:34:06;;;;;;;4.13;0.90;;;8.30;99.90;;;;;;2079556;28;20202;-84
2023/10/27 01:35:07;;;;;;;2.20;1.20;;;8.40;99.90;;;;;;2072021;28;20213;-84
2023/10/27 01:36:08;;;;;;;2.83;1.07;;;8.40;99.90;;;;;;2071095;28;20726;-85
2023/10/27 01:37:08;;;;;;;2.57;1.10;;;8.50;99.90;;;;;;2080159;28;20464;-84
2023/10/27 01:38:09;;;;;;;2.13;1.10;;;8.50;99.90;;;;;;2078539;28;20248;-83
2023/10/27 01:39:11;;;;;;;2.13;0.90;;;8.50;99.90;;;;;;2071331;28;20217;-84
2023/10/27 01:40:12;;;;;;;4.00;1.08;;;8.40;99.90;;;;;;2071941;28;20194;-84
2023/10/27 01:41:12;;;;;;;2.13;1.27;;;8.40;99.90;;;;;;2071458;28;20884;-84
2023/10/27 01:42:13;;;;;;;3.87;0.90;;;8.50;99.90;;;;;;2070841;28;20611;-84
2023/10/27 01:43:13;;;;;;;4.53;1.10;;;8.50;99.90;;;;;;2080226;28;20660;-83
2023/10/27 01:44:14;;;;;;;5.13;1.07;;;8.40;99.90;;;;;;2071494;28;20276;-85
2023/10/27 01:45:14;;;;;;;3.73;1.10;;;8.40;99.90;;;;;;2071927;28;20599;-85
2023/10/27 01:46:15;;;;;;;4.63;1.10;;;8.40;99.90;;;;;;2071107;28;20654;-85
2023/10/27 01:47:16;;;;;;;2.97;1.00;;;8.40;99.90;;;;;;2077301;28;20196;-84
2023/10/27 01:48:16;;;;;;;2.27;0.90;;;8.40;99.90;;;;;;2071702;28;20576;-84
2023/10/27 01:49:17;;;;;;;2.00;0.83;;;8.50;99.90;;;;;;2070742;28;20186;-85
2023/10/27 01:50:17;;;;;;;2.93;0.93;;;8.50;99.90;;;;;;2071110;28;20216;-83
2023/10/27 01:51:18;;;;;;;1.83;1.00;;;8.40;99.90;;;;;;2071045;28;20208;-84
2023/10/27 01:52:18;;;;;;;2.43;1.03;;;8.40;99.90;;;;;;2062981;28;20198;-84
2023/10/27 01:53:19;;;;;;;2.10;0.93;;;8.30;99.90;;;;;;2071404;28;20193;-84
2023/10/27 01:54:19;;;;;;;1.30;0.80;;;8.20;99.90;;;;;;2070246;28;20212;-84
2023/10/27 01:55:20;;;;;;;3.23;1.10;;;8.10;99.90;;;;;;2063098;28;20250;-85
2023/10/27 01:56:20;;;;;;;4.23;1.03;;;8.10;99.90;;;;;;2063123;28;20824;-84
2023/10/27 01:57:23;;;;;;;1.93;1.00;;;8.10;99.90;;;;;;2070799;28;20233;-84
2023/10/27 01:58:27;;;;;;;1.42;0.95;;;8.20;99.90;;;;;;2071375;28;20249;-84
2023/10/27 01:59:29;;;;;;;2.05;0.90;;;8.30;99.90;;;;;;2063017;28;20233;-84
2023/10/27 02:00:29;;;;;;;1.85;1.00;;;8.40;99.90;;;;;;2063957;28;20286;-84
2023/10/27 02:01:30;;;;;;;1.67;1.07;;;8.50;99.90;;;;;;2062311;28;20238;-83
2023/10/27 02:02:30;;;;;;;1.73;0.80;;;8.50;99.90;;;;;;2072050;28;20237;-84
2023/10/27 02:03:32;;;;;;;1.83;0.90;;;8.60;99.90;;;;;;2068172;28;20259;-84
2023/10/27 02:04:36;;;;;;;0.77;0.70;;;8.60;99.90;;;;;;2063085;28;20351;-84
2023/10/27 02:05:43;;;;;;;1.55;0.80;;;8.70;99.90;;;;;;2062986;28;20257;-84
2023/10/27 02:06:43;;;;;;;2.83;0.82;;;8.80;99.90;;;;;;2064193;28;20857;-84
2023/10/27 02:07:44;;;;;;;2.77;0.90;;;8.70;99.90;;;;;;2068307;28;20264;-84
2023/10/27 02:08:44;;;;;;;3.53;0.80;;;8.70;99.90;;;;;;2071328;28;20319;-84
2023/10/27 02:09:45;;;;;;;2.73;1.10;;;8.70;99.90;;;;;;2075342;28;20236;-84
2023/10/27 02:10:46;;;;;;;3.57;1.10;;;8.70;99.90;;;;;;2080496;28;20318;-84
2023/10/27 02:11:46;;;;;;;3.10;1.03;;;8.80;99.90;;;;;;2071359;28;20237;-85
2023/10/27 02:12:47;;;;;;;1.77;1.10;;;8.90;99.90;;;;;;2066640;28;20300;-84
2023/10/27 02:13:49;;;;;;;2.70;1.00;;;8.90;99.90;;;;;;2080849;28;20227;-84
2023/10/27 02:14:49;;;;;;;1.70;0.90;;;8.90;99.90;;;;;;2080423;28;20241;-83
2023/10/27 02:15:50;;;;;;;1.90;0.83;;;9.00;99.90;;;;;;2080997;28;20244;-84
2023/10/27 02:16:50;;;;;;;1.83;0.90;;;8.90;99.90;;;;;;2081488;28;20313;-84
2023/10/27 02:17:51;;;;;;;2.00;0.93;;;8.90;99.90;;;;;;2080170;28;20480;-84
2023/10/27 02:18:51;;;;;;;3.17;0.80;;;8.90;99.90;;;;;;2072773;28;20260;-84
2023/10/27 02:19:54;;;;;;;3.60;1.13;;;8.90;99.90;;;;;;2062656;28;20265;-84
2023/10/27 02:20:55;;;;;;;3.03;1.10;;;8.80;99.90;;;;;;2064184;28;20230;-84
2023/10/27 02:21:55;;;;;;;3.07;1.27;;;8.80;99.90;;;;;;2063123;28;20242;-84
2023/10/27 02:22:56;;;;;;;1.73;1.00;;;8.80;99.90;;;;;;2062666;28;20244;-83
2023/10/27 02:23:57;;;;;;;2.23;0.80;;;8.80;99.90;;;;;;2062915;28;20245;-85
2023/10/27 02:24:57;;;;;;;2.10;0.93;;;8.80;99.90;;;;;;2064746;28;20229;-84
2023/10/27 02:25:58;;;;;;;2.83;0.90;;;8.80;99.90;;;;;;2071744;28;20295;-84
2023/10/27 02:26:58;;;;;;;2.03;1.00;;;8.80;99.90;;;;;;2074785;28;20236;-84
2023/10/27 02:27:59;;;;;;;2.17;0.70;;;8.80;99.90;;;;;;2071689;28;20275;-84
2023/10/27 02:28:59;;;;;;;1.50;1.00;;;8.90;99.90;;;;;;2063717;28;20244;-85
2023/10/27 02:30:00;;;;;;;4.03;0.93;;;8.80;99.90;;;;;;2071417;28;20229;-84
2023/10/27 02:31:01;;;;;;;1.60;0.77;;;8.70;99.90;;;;;;2062660;28;20258;-85
2023/10/27 02:32:01;;;;;;;1.20;0.60;;;8.60;99.90;;;;;;2071663;28;20339;-84
2023/10/27 02:33:02;;;;;;;2.57;0.80;;;8.50;99.90;;;;;;2080134;28;20203;-84
2023/10/27 02:34:02;;;;;;;2.40;0.80;;;8.50;99.90;;;;;;2079485;28;20197;-84
2023/10/27 02:35:03;;;;;;;1.60;0.80;;;8.60;99.90;;;;;;2071967;28;20201;-85
2023/10/27 02:36:04;;;;;;;2.43;0.70;;;8.50;99.90;;;;;;2070797;28;20236;-83
2023/10/27 02:37:05;;;;;;;2.10;0.90;;;8.60;99.90;;;;;;2070889;28;20240;-84
2023/10/27 02:38:05;;;;;;;0.80;0.80;;;8.60;99.90;;;;;;2079087;28;20184;-85
2023/10/27 02:39:06;;;;;;;2.47;0.80;;;8.60;99.90;;;;;;2071143;28;20283;-84
2023/10/27 02:40:07;;;;;;;1.90;0.80;;;8.60;99.90;;;;;;2071578;28;20243;-84
2023/10/27 02:41:09;;;;;;;1.50;0.90;;;8.50;99.90;;;;;;2070962;28;20195;-85
2023/10/27 02:42:10;;;;;;;1.10;0.88;;;8.50;99.90;;;;;;2076950;28;20185;-84
2023/10/27 02:43:11;;;;;;;2.67;1.27;;;8.50;99.90;;;;;;2063081;28;20654;-84
2023/10/27 02:44:12;;;;;;;0.90;0.73;;;8.50;99.90;;;;;;2069610;28;20196;-84
2023/10/27 02:45:14;;;;;;;4.30;1.13;;;8.50;99.90;;;;;;2070657;28;20221;-85
2023/10/27 02:46:15;;;;;;;2.53;0.75;;;8.60;99.90;;;;;;2070294;28;20216;-85
2023/10/27 02:47:15;;;;;;;1.73;0.80;;;8.70;99.90;;;;;;2070438;28;20193;-84
2023/10/27 02:48:16;;;;;;;1.60;0.80;;;8.60;99.90;;;;;;2075881;28;20184;-85
2023/10/27 02:49:17;;;;;;;1.73;0.90;;;8.60;99.90;;;;;;2071381;28;20189;-85
2023/10/27 02:50:17;;;;;;;1.87;0.80;;;8.60;99.90;;;;;;2073320;28;20220;-84
2023/10/27 02:51:18;;;;;;;3.43;0.90;;;8.60;99.90;;;;;;2071727;28;20189;-84
2023/10/27 02:52:19;;;;;;;2.05;1.08;;;8.50;99.90;;;;;;2068026;28;20256;-84
2023/10/27 02:53:20;;;;;;;1.10;0.83;;;8.60;99.90;;;;;;2066307;28;20196;-85
2023/10/27 02:54:20;;;;;;;2.00;0.83;;;8.60;99.90;;;;;;2071117;28;20349;-84
2023/10/27 02:55:21;;;;;;;1.20;0.87;;;8.60;99.90;;;;;;2071673;28;20268;-84
2023/10/27 02:56:22;;;;;;;0.87;0.70;;;8.70;99.90;;;;;;2063823;28;20229;-84
2023/10/27 02:57:22;;;;;;;3.33;0.88;;;8.60;99.90;;;;;;2071209;28;20236;-85
2023/10/27 02:58:23;;;;;;;1.83;0.77;;;8.50;99.90;;;;;;2071023;28;20667;-85
2023/10/27 02:59:23;;;;;;;0.80;0.80;;;8.50;99.90;;;;;;2071908;28;20237;-84
2023/10/27 03:00:24;;;;;;;0.90;0.77;;;8.50;99.90;;;;;;2071505;28;20233;-84
2023/10/27 03:01:25;;;;;;;2.03;0.90;;;8.40;99.90;;;;;;2072508;28;20275;-84
2023/10/27 03:02:26;;;;;;;1.27;0.80;;;8.50;99.90;;;;;;2072730;28;20232;-84
2023/10/27 03:03:27;;;;;;;2.28;0.80;;;8.50;99.90;;;;;;2072101;28;20319;-84
2023/10/27 03:04:28;;;;;;;3.80;0.90;;;8.60;99.90;;;;;;2072405;28;20344;-85
2023/10/27 03:05:28;;;;;;;1.90;0.87;;;8.70;99.90;;;;;;2074994;28;20353;-84
2023/10/27 03:06:29;;;;;;;1.13;0.80;;;8.70;99.90;;;;;;2075613;28;20312;-85
2023/10/27 03:07:30;;;;;;;1.53;0.77;;;8.70;99.90;;;;;;2072619;28;20241;-85
2023/10/27 03:08:32;;;;;;;1.03;0.70;;;8.60;99.90;;;;;;2080078;28;20278;-84
2023/10/27 03:09:32;;;;;;;2.47;0.90;;;8.50;99.90;;;;;;2070642;28;20249;-84
2023/10/27 03:10:33;;;;;;;0.80;0.80;;;8.50;99.90;;;;;;2067037;28;20233;-84
2023/10/27 03:11:34;;;;;;;1.20;0.80;;;8.50;99.90;;;;;;2075172;28;20240;-84
2023/10/27 03:12:34;;;;;;;2.43;1.00;;;8.50;99.90;;;;;;2080672;28;20263;-84
2023/10/27 03:13:35;;;;;;;0.93;0.80;;;8.50;99.90;;;;;;2070751;28;20286;-84
2023/10/27 03:14:36;;;;;;;1.42;0.75;;;8.40;99.90;;;;;;2072214;28;20263;-84
2023/10/27 03:15:36;;;;;;;1.50;0.80;;;8.40;99.90;;;;;;2081658;28;20239;-84
2023/10/27 03:16:37;;;;;;;1.13;0.70;;;8.40;99.90;;;;;;2072454;28;20236;-84
2023/10/27 03:17:38;;;;;;;0.60;0.60;;;8.50;99.90;;;;;;2071681;28;20243;-85
2023/10/27 03:18:38;;;;;;;1.17;0.70;;;8.50;99.90;;;;;;2072189;28;20228;-83
2023/10/27 03:19:39;;;;;;;2.63;1.00;;;8.40;99.90;;;;;;2064515;28;20318;-85
2023/10/27 03:20:39;;;;;;;1.37;0.90;;;8.40;99.90;;;;;;2063736;28;20351;-84
2023/10/27 03:21:40;;;;;;;1.00;0.90;;;8.40;99.90;;;;;;2073061;28;20237;-85
2023/10/27 03:22:41;;;;;;;2.80;0.90;;;8.40;99.90;;;;;;2072543;28;20232;-84
2023/10/27 03:23:41;;;;;;;2.87;0.87;;;8.40;99.90;;;;;;2064076;28;20230;-85
2023/10/27 03:24:42;;;;;;;1.53;0.90;;;8.30;99.90;;;;;;2072074;28;20240;-85
2023/10/27 03:25:43;;;;;;;2.10;1.07;;;8.30;99.90;;;;;;2065399;28;20717;-84
2023/10/27 03:26:43;;;;;;;1.07;0.80;;;8.30;99.90;;;;;;2066467;28;20230;-85
2023/10/27 03:27:44;;;;;;;1.10;0.80;;;8.40;99.90;;;;;;2072553;28;20295;-85
2023/10/27 03:28:45;;;;;;;2.43;1.20;;;8.40;99.90;;;;;;2071492;28;20252;-84
2023/10/27 03:29:45;;;;;;;1.50;0.70;;;8.50;99.90;;;;;;2072608;28;20228;-85
2023/10/27 03:30:48;;;;;;;1.63;1.03;;;8.50;99.90;;;;;;2079745;28;20259;-85
2023/10/27 03:31:50;;;;;;;1.92;1.17;;;8.60;99.90;;;;;;2080562;28;20250;-85
2023/10/27 03:32:50;;;;;;;2.55;1.30;;;8.60;99.90;;;;;;2072558;28;20225;-84
2023/10/27 03:33:51;;;;;;;1.77;1.00;;;8.60;99.90;;;;;;2072509;28;20621;-83
2023/10/27 03:34:52;;;;;;;2.25;1.35;;;8.50;99.90;;;;;;2080526;28;20772;-85
2023/10/27 03:35:52;;;;;;;1.60;1.23;;;8.40;99.90;;;;;;2079707;28;20223;-85
2023/10/27 03:36:53;;;;;;;1.93;1.50;;;8.40;99.90;;;;;;2072462;28;20789;-85
2023/10/27 03:37:54;;;;;;;1.90;1.27;;;8.40;99.90;;;;;;2065443;28;20698;-84
2023/10/27 03:38:54;;;;;;;1.70;1.40;;;8.30;99.90;;;;;;2073252;28;20247;-84
2023/10/27 03:39:55;;;;;;;2.67;1.40;;;8.20;99.90;;;;;;2073689;28;20248;-85
2023/10/27 03:40:56;;;;;;;1.67;1.20;;;8.20;99.90;;;;;;2064350;28;20219;-85
2023/10/27 03:41:56;;;;;;;1.13;1.03;;;8.10;99.90;;;;;;2071673;28;20546;-84
2023/10/27 03:42:57;;;;;;;2.20;1.00;;;8.00;99.90;;;;;;2072974;28;20232;-85
2023/10/27 03:43:58;;;;;;;0.80;0.73;;;8.00;99.90;;;;;;2064823;28;20611;-84
2023/10/27 03:44:58;;;;;;;0.70;0.70;;;8.00;99.90;;;;;;2063708;28;20764;-83
2023/10/27 03:45:59;;;;;;;0.70;0.63;;;7.90;99.90;;;;;;2064251;28;20274;-84
2023/10/27 03:46:59;;;;;;;0.80;0.53;;;7.90;99.90;;;;;;2061602;28;20283;-84
2023/10/27 03:48:00;;;;;;;0.63;0.53;;;8.00;99.90;;;;;;2063619;28;20311;-84
2023/10/27 03:49:01;;;;;;;0.73;0.73;;;8.00;99.90;;;;;;2071166;28;20879;-84
2023/10/27 03:50:01;;;;;;;0.60;0.60;;;8.10;99.90;;;;;;2074939;28;20207;-84
2023/10/27 03:51:05;;;;;;;2.30;0.50;;;8.20;99.90;;;;;;2074866;28;20231;-85
2023/10/27 03:52:06;;;;;;;0.52;0.50;;;8.20;99.90;;;;;;2073006;28;20638;-84
2023/10/27 03:53:07;;;;;;;0.87;0.60;;;8.30;99.90;;;;;;2074788;28;20188;-85
2023/10/27 03:54:07;;;;;;;1.10;0.70;;;8.40;99.90;;;;;;2072218;28;20212;-84
2023/10/27 03:55:11;;;;;;;0.90;0.60;;;8.50;99.90;;;;;;2061900;28;20624;-84
2023/10/27 03:56:13;;;;;;;0.63;0.60;;;8.60;99.90;;;;;;2063863;28;20690;-85
2023/10/27 03:57:13;;;;;;;0.82;0.50;;;8.50;99.90;;;;;;2071795;28;20204;-84
2023/10/27 03:58:15;;;;;;;0.87;0.80;;;8.50;99.90;;;;;;2065896;28;20578;-84
2023/10/27 03:59:18;;;;;;;2.75;2.20;;;8.50;99.90;;;;;;2071550;28;20765;-85
2023/10/27 04:00:19;;;;;;;2.42;2.17;;;8.50;99.90;;;;;;2066157;28;20231;-84
2023/10/27 04:01:20;;;;;;;0.82;0.68;;;8.40;99.90;;;;;;2063695;28;20670;-83
2023/10/27 04:02:20;;;;;;;0.90;0.70;;;8.50;99.90;;;;;;2072350;28;20307;-84
2023/10/27 04:03:21;;;;;;;0.70;0.60;;;8.30;99.90;;;;;;2075340;28;20302;-85
2023/10/27 04:04:21;;;;;;;1.03;0.73;;;8.30;99.90;;;;;;2085207;28;20241;-85
2023/10/27 04:05:22;;;;;;;0.50;0.50;;;8.20;99.90;;;;;;2084769;28;20280;-84
2023/10/27 04:06:22;;;;;;;2.20;0.80;;;8.10;99.90;;;;;;2078292;28;20316;-84
2023/10/27 04:07:23;;;;;;;0.93;0.80;;;8.10;99.90;;;;;;2089742;28;20237;-84
2023/10/27 04:08:24;;;;;;;2.17;0.80;;;8.10;99.90;;;;;;2081085;28;20236;-84
2023/10/27 04:09:24;;;;;;;1.33;0.60;;;8.20;99.90;;;;;;2078898;28;20237;-85
2023/10/27 04:10:25;;;;;;;3.23;0.80;;;8.20;99.90;;;;;;2081430;28;20231;-84
2023/10/27 04:11:25;;;;;;;1.43;0.83;;;8.30;99.90;;;;;;2081378;28;20232;-84
2023/10/27 04:12:26;;;;;;;2.07;1.60;;;8.30;99.90;;;;;;2075598;28;20251;-84
2023/10/27 04:13:26;;;;;;;1.00;0.90;;;8.30;99.90;;;;;;2075064;28;20237;-85
2023/10/27 04:14:27;;;;;;;1.40;0.80;;;8.40;99.90;;;;;;2064405;28;20314;-85
2023/10/27 04:15:28;;;;;;;0.83;0.70;;;8.40;99.90;;;;;;2063746;28;20234;-84
2023/10/27 04:16:29;;;;;;;2.00;1.20;;;8.30;99.90;;;;;;2064187;28;20243;-85
2023/10/27 04:17:30;;;;;;;2.60;1.23;;;8.30;99.90;;;;;;2081273;28;20251;-84
2023/10/27 04:18:31;;;;;;;3.40;1.20;;;8.20;99.90;;;;;;2075370;28;20713;-84
2023/10/27 04:19:33;;;;;;;1.58;1.00;;;8.30;99.90;;;;;;2074483;28;20233;-84
2023/10/27 04:20:33;;;;;;;1.10;1.00;;;8.30;99.90;;;;;;2072700;28;20272;-84
2023/10/27 04:21:34;;;;;;;0.70;0.70;;;8.30;99.90;;;;;;2081343;28;20790;-84
2023/10/27 04:22:34;;;;;;;1.03;0.90;;;8.30;99.90;;;;;;2079672;28;20236;-83
2023/10/27 04:23:35;;;;;;;2.50;0.60;;;8.30;99.90;;;;;;2081508;28;20225;-84
2023/10/27 04:24:35;;;;;;;0.70;0.70;;;8.30;99.90;;;;;;2080776;28;20295;-84
2023/10/27 04:25:39;;;;;;;0.70;0.70;;;8.20;99.90;;;;;;2071917;28;20236;-84
2023/10/27 04:26:39;;;;;;;0.65;0.65;;;8.20;99.90;;;;;;2061330;28;20277;-85
2023/10/27 04:27:40;;;;;;;0.90;0.90;;;8.20;99.90;;;;;;2071961;28;20237;-84
2023/10/27 04:28:42;;;;;;;1.25;1.15;;;8.20;99.90;;;;;;2072327;28;20236;-82
2023/10/27 04:29:43;;;;;;;1.02;0.93;;;8.40;99.90;;;;;;2069981;28;20236;-82
2023/10/27 04:30:43;;;;;;;1.57;1.37;;;8.40;99.90;;;;;;2075591;28;20258;-82
2023/10/27 04:31:44;;;;;;;1.43;0.90;;;8.30;99.90;;;;;;2076801;28;20244;-83
2023/10/27 04:32:45;;;;;;;1.10;1.00;;;8.40;99.90;;;;;;2076146;28;20241;-83
2023/10/27 04:33:48;;;;;;;1.13;1.03;;;8.40;99.90;;;;;;2073489;28;20236;-83
2023/10/27 04:34:48;;;;;;;1.20;1.10;;;8.50;99.90;;;;;;2064430;28;20496;-82
2023/10/27 04:35:49;;;;;;;0.80;0.80;;;8.50;99.90;;;;;;2072126;28;20249;-84
2023/10/27 04:36:49;;;;;;;1.70;1.60;;;8.50;99.90;;;;;;2080968;28;20685;-84
2023/10/27 04:37:50;;;;;;;1.30;1.17;;;8.40;99.90;;;;;;2081006;28;20604;-83
2023/10/27 04:38:51;;;;;;;1.30;1.20;;;8.50;99.90;;;;;;2080906;28;20232;-83
2023/10/27 04:39:54;;;;;;;3.53;2.30;;;8.50;99.90;;;;;;2082103;28;20236;-83
2023/10/27 04:40:55;;;;;;;4.85;4.25;;;8.50;99.90;;;;;;2074991;28;20681;-84
2023/10/27 04:41:56;;;;;;;8.23;6.60;;;8.50;99.90;;;;;;2073543;28;20235;-83
2023/10/27 04:42:58;;;;;;;6.73;5.03;;;8.50;99.90;;;;;;2072560;28;20225;-83
2023/10/27 04:43:58;;;;;;;3.63;3.17;;;8.60;99.90;;;;;;2082092;28;20612;-83
2023/10/27 04:44:59;;;;;;;2.33;2.13;;;8.70;99.90;;;;;;2072909;28;20256;-84
2023/10/27 04:46:00;;;;;;;1.00;0.90;;;8.70;99.90;;;;;;2073520;28;20303;-84
2023/10/27 04:47:00;;;;;;;1.40;1.30;;;8.80;99.90;;;;;;2073147;28;20239;-84
2023/10/27 04:48:01;;;;;;;1.63;1.30;;;8.90;99.90;;;;;;2080209;28;20203;-84
2023/10/27 04:49:01;;;;;;;1.67;1.40;;;9.00;99.90;;;;;;2072817;28;20274;-83
2023/10/27 04:50:03;;;;;;;2.93;2.53;;;9.00;99.90;;;;;;2064736;28;20277;-83
2023/10/27 04:51:04;;;;;;;8.95;8.25;;;9.00;99.90;;;;;;2061376;28;20619;-83
2023/10/27 04:52:05;;;;;;;6.80;6.20;;;9.00;99.90;;;;;;2067784;28;20285;-83
2023/10/27 04:53:06;;;;;;;5.03;4.63;;;9.00;99.90;;;;;;2075889;28;20201;-84
2023/10/27 04:54:07;;;;;;;3.00;2.80;;;9.00;99.90;;;;;;2068090;28;20186;-83
2023/10/27 04:55:08;;;;;;;0.93;0.93;;;9.00;99.90;;;;;;2074575;28;20707;-83
2023/10/27 04:56:09;;;;;;;0.55;0.55;;;8.90;99.90;;;;;;2077643;28;20621;-83
2023/10/27 04:57:09;;;;;;;1.53;0.90;;;8.90;99.90;;;;;;2075104;28;20201;-83
2023/10/27 04:58:10;;;;;;;1.10;0.80;;;8.90;99.90;;;;;;2067271;28;20185;-83
2023/10/27 04:59:10;;;;;;;1.00;0.80;;;8.90;99.90;;;;;;2079469;28;20170;-83
2023/10/27 05:00:11;;;;;;;0.83;0.77;;;9.00;99.90;;;;;;2075381;28;20205;-83
2023/10/27 05:01:13;;;;;;;0.80;0.80;;;9.10;99.90;;;;;;2066629;28;20198;-83
2023/10/27 05:02:13;;;;;;;0.70;0.70;;;9.10;99.90;;;;;;2075539;28;20207;-83
2023/10/27 05:03:14;;;;;;;0.93;0.93;;;9.10;99.90;;;;;;2075348;28;20200;-84
2023/10/27 05:04:14;;;;;;;1.03;0.90;;;9.10;99.90;;;;;;2077019;28;20258;-83
2023/10/27 05:05:15;;;;;;;0.93;0.83;;;9.10;99.90;;;;;;2070983;28;20209;-83
2023/10/27 05:06:16;;;;;;;0.80;0.80;;;9.00;99.90;;;;;;2073548;28;20200;-83
2023/10/27 05:07:16;;;;;;;1.00;0.90;;;9.10;99.90;;;;;;2066797;28;20588;-83
2023/10/27 05:08:17;;;;;;;2.30;0.80;;;9.00;99.90;;;;;;2072719;28;20190;-84
2023/10/27 05:09:18;;;;;;;0.63;0.60;;;9.00;99.90;;;;;;2082212;28;20189;-83
2023/10/27 05:10:19;;;;;;;0.60;0.60;;;9.10;99.90;;;;;;2080859;28;20189;-83
2023/10/27 05:11:20;;;;;;;0.40;0.40;;;9.00;99.90;;;;;;2073139;28;20186;-83
2023/10/27 05:12:20;;;;;;;0.40;0.40;;;9.00;99.90;;;;;;2072491;28;20754;-83
2023/10/27 05:13:21;;;;;;;0.50;0.50;;;9.00;99.90;;;;;;2063668;28;21120;-83
2023/10/27 05:14:21;;;;;;;0.50;0.50;;;9.00;99.90;;;;;;2071796;28;20592;-84
2023/10/27 05:15:22;;;;;;;0.50;0.50;;;8.90;99.90;;;;;;2072285;28;20845;-84
2023/10/27 05:16:22;;;;;;;0.60;0.60;;;8.90;99.90;;;;;;2071421;28;20332;-83
2023/10/27 05:17:23;;;;;;;0.30;0.30;;;8.90;99.90;;;;;;2072202;28;20268;-84
2023/10/27 05:18:24;;;;;;;0.47;0.47;;;8.90;99.90;;;;;;2079476;28;20232;-83
2023/10/27 05:19:24;;;;;;;1.27;0.43;;;8.80;99.90;;;;;;2074588;28;20324;-83
2023/10/27 05:20:25;;;;;;;0.40;0.40;;;8.80;99.90;;;;;;2070461;28;20228;-83
2023/10/27 05:21:27;;;;;;;0.60;0.60;;;8.80;99.90;;;;;;2073858;28;20225;-83